sensor_id;sensor_type;location;lat;lon;timestamp;temperature;humidity
8939;DHT22;4504;48.810;9.172;2023-07-31T13:02:32;21.70;94.30
8939;DHT22;4504;48.810;9.172;2023-07-31T13:04:59;21.70;95.10
8939;DHT22;4504;48.810;9.172;2023-07-31T13:07:26;21.70;94.50
8939;DHT22;4504;48.810;9.172;2023-07-31T13:09:53;21.80;94.80
8939;DHT22;4504;48.810;9.172;2023-07-31T13:12:20;21.70;94.30
8939;DHT22;4504;48.810;9.172;2023-07-31T13:14:47;21.70;94.30
8939;DHT22;4504;48.810;9.172;2023-07-31T13:17:14;21.70;94.80
8939;DHT22;4504;48.810;9.172;2023-07-31T13:19:42;21.80;94.00
8939;DHT22;4504;48.810;9.172;2023-07-31T13:22:09;21.80;94.60
8939;DHT22;4504;48.810;9.172;2023-07-31T13:24:36;21.70;94.20
8939;DHT22;4504;48.810;9.172;2023-07-31T13:27:04;21.80;94.70
8939;DHT22;4504;48.810;9.172;2023-07-31T13:29:31;21.80;94.60
8939;DHT22;4504;48.810;9.172;2023-07-31T13:31:58;21.90;95.00
8939;DHT22;4504;48.810;9.172;2023-07-31T13:34:25;22.00;94.30
8939;DHT22;4504;48.810;9.172;2023-07-31T13:36:54;22.20;94.00
8939;DHT22;4504;48.810;9.172;2023-07-31T13:39:21;22.50;93.90
8939;DHT22;4504;48.810;9.172;2023-07-31T13:41:48;23.00;94.10
8939;DHT22;4504;48.810;9.172;2023-07-31T13:44:15;23.40;93.10
8939;DHT22;4504;48.810;9.172;2023-07-31T13:46:42;23.50;92.70
8939;DHT22;4504;48.810;9.172;2023-07-31T13:49:09;23.40;91.90
8939;DHT22;4504;48.810;9.172;2023-07-31T13:51:36;23.20;92.40
8939;DHT22;4504;48.810;9.172;2023-07-31T13:54:06;23.10;92.20
8939;DHT22;4504;48.810;9.172;2023-07-31T13:56:33;23.10;92.60
8939;DHT22;4504;48.810;9.172;2023-07-31T13:59:00;23.20;92.90
8939;DHT22;4504;48.810;9.172;2023-07-31T14:01:27;23.00;92.90
8939;DHT22;4504;48.810;9.172;2023-07-31T14:03:54;22.90;92.90
8939;DHT22;4504;48.810;9.172;2023-07-31T14:06:22;22.90;93.00
8939;DHT22;4504;48.810;9.172;2023-07-31T14:08:49;22.90;93.00
8939;DHT22;4504;48.810;9.172;2023-07-31T14:11:17;22.90;92.80
8939;DHT22;4504;48.810;9.172;2023-07-31T14:13:44;22.80;92.30
8939;DHT22;4504;48.810;9.172;2023-07-31T14:16:11;22.70;92.60
8939;DHT22;4504;48.810;9.172;2023-07-31T14:18:38;22.60;92.60
8939;DHT22;4504;48.810;9.172;2023-07-31T14:21:05;22.60;92.80
8939;DHT22;4504;48.810;9.172;2023-07-31T14:23:32;22.60;92.80
8939;DHT22;4504;48.810;9.172;2023-07-31T14:25:59;22.70;92.90
8939;DHT22;4504;48.810;9.172;2023-07-31T14:28:27;22.90;93.00
8939;DHT22;4504;48.810;9.172;2023-07-31T14:30:54;23.00;92.30
8939;DHT22;4504;48.810;9.172;2023-07-31T14:33:21;23.30;92.30
8939;DHT22;4504;48.810;9.172;2023-07-31T14:35:49;23.60;93.00
8939;DHT22;4504;48.810;9.172;2023-07-31T14:38:16;23.60;92.00
8939;DHT22;4504;48.810;9.172;2023-07-31T14:40:43;23.80;92.20
8939;DHT22;4504;48.810;9.172;2023-07-31T14:43:10;23.80;91.80
8939;DHT22;4504;48.810;9.172;2023-07-31T14:45:38;23.80;91.70
8939;DHT22;4504;48.810;9.172;2023-07-31T14:48:05;23.80;91.60
8939;DHT22;4504;48.810;9.172;2023-07-31T14:50:32;23.90;91.40
8939;DHT22;4504;48.810;9.172;2023-07-31T14:52:59;24.00;91.90
8939;DHT22;4504;48.810;9.172;2023-07-31T14:55:26;24.00;91.20
8939;DHT22;4504;48.810;9.172;2023-07-31T14:57:53;23.80;91.50
8939;DHT22;4504;48.810;9.172;2023-07-31T15:00:20;23.60;91.60
8939;DHT22;4504;48.810;9.172;2023-07-31T15:02:49;23.60;91.80
8939;DHT22;4504;48.810;9.172;2023-07-31T15:05:16;23.50;91.80
8939;DHT22;4504;48.810;9.172;2023-07-31T15:07:43;23.60;91.60
8939;DHT22;4504;48.810;9.172;2023-07-31T15:10:10;23.90;92.00
8939;DHT22;4504;48.810;9.172;2023-07-31T15:12:39;24.30;91.30
8939;DHT22;4504;48.810;9.172;2023-07-31T15:15:07;24.60;90.90
8939;DHT22;4504;48.810;9.172;2023-07-31T15:17:34;24.90;88.90
8939;DHT22;4504;48.810;9.172;2023-07-31T15:20:03;24.80;89.70
8939;DHT22;4504;48.810;9.172;2023-07-31T15:22:31;24.60;89.50
8939;DHT22;4504;48.810;9.172;2023-07-31T15:24:58;24.70;88.80
8939;DHT22;4504;48.810;9.172;2023-07-31T15:27:25;24.50;90.10
8939;DHT22;4504;48.810;9.172;2023-07-31T15:29:52;24.70;89.80
8939;DHT22;4504;48.810;9.172;2023-07-31T15:32:19;24.80;86.90
8939;DHT22;4504;48.810;9.172;2023-07-31T15:34:48;24.70;88.50
8939;DHT22;4504;48.810;9.172;2023-07-31T15:37:17;24.60;87.40
8939;DHT22;4504;48.810;9.172;2023-07-31T15:39:44;24.40;87.30
8939;DHT22;4504;48.810;9.172;2023-07-31T15:42:11;24.30;87.50
8939;DHT22;4504;48.810;9.172;2023-07-31T15:44:38;24.20;88.00
8939;DHT22;4504;48.810;9.172;2023-07-31T15:47:05;24.10;87.80
8939;DHT22;4504;48.810;9.172;2023-07-31T15:49:32;24.30;88.70
8939;DHT22;4504;48.810;9.172;2023-07-31T15:51:59;24.60;87.80
8939;DHT22;4504;48.810;9.172;2023-07-31T15:54:28;25.00;86.20
8939;DHT22;4504;48.810;9.172;2023-07-31T15:56:55;25.00;85.60
8939;DHT22;4504;48.810;9.172;2023-07-31T15:59:22;25.00;86.40
8939;DHT22;4504;48.810;9.172;2023-07-31T16:01:49;25.20;86.50
8939;DHT22;4504;48.810;9.172;2023-07-31T16:04:15;25.10;85.80
8939;DHT22;4504;48.810;9.172;2023-07-31T16:06:42;25.30;85.40
8939;DHT22;4504;48.810;9.172;2023-07-31T16:09:09;25.10;85.40
8939;DHT22;4504;48.810;9.172;2023-07-31T16:11:38;24.70;87.50
8939;DHT22;4504;48.810;9.172;2023-07-31T16:14:05;24.70;87.20
8939;DHT22;4504;48.810;9.172;2023-07-31T16:16:32;24.60;87.10
8939;DHT22;4504;48.810;9.172;2023-07-31T16:18:59;24.40;87.90
8939;DHT22;4504;48.810;9.172;2023-07-31T16:21:26;24.50;88.50
8939;DHT22;4504;48.810;9.172;2023-07-31T16:23:53;24.30;88.40
8939;DHT22;4504;48.810;9.172;2023-07-31T16:26:20;24.00;88.80
8939;DHT22;4504;48.810;9.172;2023-07-31T16:28:48;23.70;90.00
8939;DHT22;4504;48.810;9.172;2023-07-31T16:31:15;23.50;90.40
8939;DHT22;4504;48.810;9.172;2023-07-31T16:33:42;23.30;90.50
8939;DHT22;4504;48.810;9.172;2023-07-31T16:36:09;23.20;91.10
8939;DHT22;4504;48.810;9.172;2023-07-31T16:38:36;23.20;91.20
8939;DHT22;4504;48.810;9.172;2023-07-31T16:41:03;23.10;90.90
8939;DHT22;4504;48.810;9.172;2023-07-31T16:43:30;23.20;91.10
8939;DHT22;4504;48.810;9.172;2023-07-31T16:45:58;23.10;91.30
8939;DHT22;4504;48.810;9.172;2023-07-31T16:48:25;23.10;91.50
8939;DHT22;4504;48.810;9.172;2023-07-31T16:50:53;23.00;91.60
8939;DHT22;4504;48.810;9.172;2023-07-31T16:53:20;22.90;91.50
8939;DHT22;4504;48.810;9.172;2023-07-31T16:55:47;22.70;91.80
8939;DHT22;4504;48.810;9.172;2023-07-31T16:58:14;22.60;91.90
8939;DHT22;4504;48.810;9.172;2023-07-31T17:00:41;22.60;92.20
8939;DHT22;4504;48.810;9.172;2023-07-31T17:03:09;22.60;92.10
8939;DHT22;4504;48.810;9.172;2023-07-31T17:05:36;22.50;92.20
8939;DHT22;4504;48.810;9.172;2023-07-31T17:08:04;22.50;92.50
8939;DHT22;4504;48.810;9.172;2023-07-31T17:10:31;22.40;92.60
8939;DHT22;4504;48.810;9.172;2023-07-31T17:12:58;22.40;92.70
8939;DHT22;4504;48.810;9.172;2023-07-31T17:15:25;22.40;92.90
8939;DHT22;4504;48.810;9.172;2023-07-31T17:17:53;22.40;93.10
8939;DHT22;4504;48.810;9.172;2023-07-31T17:20:22;22.50;93.00
8939;DHT22;4504;48.810;9.172;2023-07-31T17:22:49;22.40;93.10
8939;DHT22;4504;48.810;9.172;2023-07-31T17:25:17;22.40;93.50
8939;DHT22;4504;48.810;9.172;2023-07-31T17:27:46;22.30;93.40
8939;DHT22;4504;48.810;9.172;2023-07-31T17:30:13;22.30;93.70
8939;DHT22;4504;48.810;9.172;2023-07-31T17:32:40;22.30;93.70
8939;DHT22;4504;48.810;9.172;2023-07-31T17:35:08;22.20;93.50
8939;DHT22;4504;48.810;9.172;2023-07-31T17:37:36;22.20;93.60
8939;DHT22;4504;48.810;9.172;2023-07-31T17:40:07;22.20;93.50
8939;DHT22;4504;48.810;9.172;2023-07-31T17:42:34;22.20;93.60
8939;DHT22;4504;48.810;9.172;2023-07-31T17:45:02;22.30;94.00
8939;DHT22;4504;48.810;9.172;2023-07-31T17:47:29;22.30;93.50
8939;DHT22;4504;48.810;9.172;2023-07-31T17:49:56;22.40;93.50
8939;DHT22;4504;48.810;9.172;2023-07-31T17:52:23;22.40;93.70
8939;DHT22;4504;48.810;9.172;2023-07-31T17:54:52;22.40;93.70
8939;DHT22;4504;48.810;9.172;2023-07-31T17:57:20;22.50;94.20
8939;DHT22;4504;48.810;9.172;2023-07-31T17:59:47;22.50;94.40
8939;DHT22;4504;48.810;9.172;2023-07-31T18:02:13;22.50;94.40
8939;DHT22;4504;48.810;9.172;2023-07-31T18:04:41;22.50;93.50
8939;DHT22;4504;48.810;9.172;2023-07-31T18:07:07;22.40;94.00
8939;DHT22;4504;48.810;9.172;2023-07-31T18:09:35;22.40;94.40
8939;DHT22;4504;48.810;9.172;2023-07-31T18:12:03;22.40;94.60
8939;DHT22;4504;48.810;9.172;2023-07-31T18:14:31;22.30;94.60
8939;DHT22;4504;48.810;9.172;2023-07-31T18:17:01;22.30;94.40
8939;DHT22;4504;48.810;9.172;2023-07-31T18:19:29;22.20;95.00
8939;DHT22;4504;48.810;9.172;2023-07-31T18:21:56;22.20;95.40
8939;DHT22;4504;48.810;9.172;2023-07-31T18:24:23;22.20;95.60
8939;DHT22;4504;48.810;9.172;2023-07-31T18:26:50;22.20;96.10
8939;DHT22;4504;48.810;9.172;2023-07-31T18:29:19;22.20;96.90
8939;DHT22;4504;48.810;9.172;2023-07-31T18:31:46;22.20;97.00
8939;DHT22;4504;48.810;9.172;2023-07-31T18:34:13;22.10;97.70
8939;DHT22;4504;48.810;9.172;2023-07-31T18:36:40;22.10;97.10
8939;DHT22;4504;48.810;9.172;2023-07-31T18:39:08;22.00;96.30
8939;DHT22;4504;48.810;9.172;2023-07-31T18:41:35;22.00;97.10
8939;DHT22;4504;48.810;9.172;2023-07-31T18:44:02;22.00;97.00
8939;DHT22;4504;48.810;9.172;2023-07-31T18:46:31;22.00;96.60
8939;DHT22;4504;48.810;9.172;2023-07-31T18:48:58;21.80;97.00
8939;DHT22;4504;48.810;9.172;2023-07-31T18:51:25;21.80;97.00
8939;DHT22;4504;48.810;9.172;2023-07-31T18:53:52;21.60;97.70
8939;DHT22;4504;48.810;9.172;2023-07-31T18:56:19;21.70;99.90
8939;DHT22;4504;48.810;9.172;2023-07-31T18:58:45;21.60;99.90
8939;DHT22;4504;48.810;9.172;2023-07-31T19:01:14;21.50;99.90
8939;DHT22;4504;48.810;9.172;2023-07-31T19:03:43;21.30;99.90
8939;DHT22;4504;48.810;9.172;2023-07-31T19:06:10;21.10;99.90
8939;DHT22;4504;48.810;9.172;2023-07-31T19:08:37;21.00;99.90
8939;DHT22;4504;48.810;9.172;2023-07-31T19:11:04;20.90;99.90
8939;DHT22;4504;48.810;9.172;2023-07-31T19:13:31;20.70;99.90
8939;DHT22;4504;48.810;9.172;2023-07-31T19:15:58;20.70;99.90
8939;DHT22;4504;48.810;9.172;2023-07-31T19:18:25;20.50;99.90
8939;DHT22;4504;48.810;9.172;2023-07-31T19:20:53;20.40;99.90
8939;DHT22;4504;48.810;9.172;2023-07-31T19:23:21;20.40;99.90
8939;DHT22;4504;48.810;9.172;2023-07-31T19:25:48;20.30;99.90
8939;DHT22;4504;48.810;9.172;2023-07-31T19:28:15;20.20;99.90
8939;DHT22;4504;48.810;9.172;2023-07-31T19:30:42;20.10;99.90
8939;DHT22;4504;48.810;9.172;2023-07-31T19:33:09;19.90;99.90
8939;DHT22;4504;48.810;9.172;2023-07-31T19:35:36;19.90;99.90
8939;DHT22;4504;48.810;9.172;2023-07-31T19:38:05;19.90;99.90
8939;DHT22;4504;48.810;9.172;2023-07-31T19:40:32;19.90;99.90
8939;DHT22;4504;48.810;9.172;2023-07-31T19:43:00;19.90;99.90
8939;DHT22;4504;48.810;9.172;2023-07-31T19:45:27;19.90;99.90
8939;DHT22;4504;48.810;9.172;2023-07-31T19:47:55;19.90;99.90
8939;DHT22;4504;48.810;9.172;2023-07-31T19:50:22;19.80;99.90
8939;DHT22;4504;48.810;9.172;2023-07-31T19:52:49;19.80;99.90
8939;DHT22;4504;48.810;9.172;2023-07-31T19:55:18;19.60;99.90
8939;DHT22;4504;48.810;9.172;2023-07-31T19:57:45;19.40;99.90
8939;DHT22;4504;48.810;9.172;2023-07-31T20:00:12;19.30;99.90
8939;DHT22;4504;48.810;9.172;2023-07-31T20:02:39;19.10;99.90
8939;DHT22;4504;48.810;9.172;2023-07-31T20:05:07;19.10;99.90
8939;DHT22;4504;48.810;9.172;2023-07-31T20:07:34;19.00;99.90
8939;DHT22;4504;48.810;9.172;2023-07-31T20:10:01;19.00;99.90
8939;DHT22;4504;48.810;9.172;2023-07-31T20:12:29;18.80;99.90
8939;DHT22;4504;48.810;9.172;2023-07-31T20:15:00;18.80;99.90
8939;DHT22;4504;48.810;9.172;2023-07-31T20:17:28;18.90;99.90
8939;DHT22;4504;48.810;9.172;2023-07-31T20:19:56;19.00;99.90
8939;DHT22;4504;48.810;9.172;2023-07-31T20:22:23;19.00;99.90
8939;DHT22;4504;48.810;9.172;2023-07-31T20:24:50;19.00;99.90
8939;DHT22;4504;48.810;9.172;2023-07-31T20:27:19;19.00;99.90
8939;DHT22;4504;48.810;9.172;2023-07-31T20:29:47;19.00;99.90
8939;DHT22;4504;48.810;9.172;2023-07-31T20:32:14;19.00;99.90
8939;DHT22;4504;48.810;9.172;2023-07-31T20:34:41;19.00;99.90
8939;DHT22;4504;48.810;9.172;2023-07-31T20:37:08;19.00;99.90
8939;DHT22;4504;48.810;9.172;2023-07-31T20:39:35;19.00;99.90
8939;DHT22;4504;48.810;9.172;2023-07-31T20:42:03;19.10;99.90
8939;DHT22;4504;48.810;9.172;2023-07-31T20:44:30;19.10;99.90
8939;DHT22;4504;48.810;9.172;2023-07-31T20:46:58;19.10;99.90
8939;DHT22;4504;48.810;9.172;2023-07-31T20:49:26;19.10;99.90
8939;DHT22;4504;48.810;9.172;2023-07-31T20:51:53;19.00;99.90
8939;DHT22;4504;48.810;9.172;2023-07-31T20:54:20;19.00;99.90
8939;DHT22;4504;48.810;9.172;2023-07-31T20:56:47;18.90;99.90
8939;DHT22;4504;48.810;9.172;2023-07-31T20:59:14;18.90;99.90
8939;DHT22;4504;48.810;9.172;2023-07-31T21:01:41;18.90;99.90
8939;DHT22;4504;48.810;9.172;2023-07-31T21:04:10;18.90;99.90
8939;DHT22;4504;48.810;9.172;2023-07-31T21:06:38;18.90;99.90
8939;DHT22;4504;48.810;9.172;2023-07-31T21:09:05;18.90;99.90
8939;DHT22;4504;48.810;9.172;2023-07-31T21:11:32;18.90;99.90
8939;DHT22;4504;48.810;9.172;2023-07-31T21:14:00;18.90;99.90
8939;DHT22;4504;48.810;9.172;2023-07-31T21:16:27;19.00;99.90
8939;DHT22;4504;48.810;9.172;2023-07-31T21:18:54;19.10;99.90
8939;DHT22;4504;48.810;9.172;2023-07-31T21:21:23;19.00;99.90
8939;DHT22;4504;48.810;9.172;2023-07-31T21:23:49;19.00;99.90
8939;DHT22;4504;48.810;9.172;2023-07-31T21:26:16;19.00;99.90
8939;DHT22;4504;48.810;9.172;2023-07-31T21:28:43;19.00;99.90
8939;DHT22;4504;48.810;9.172;2023-07-31T21:31:11;19.10;99.90
8939;DHT22;4504;48.810;9.172;2023-07-31T21:33:38;19.00;99.90
8939;DHT22;4504;48.810;9.172;2023-07-31T21:36:05;19.00;99.90
8939;DHT22;4504;48.810;9.172;2023-07-31T21:38:34;19.00;99.90
8939;DHT22;4504;48.810;9.172;2023-07-31T21:41:01;19.00;99.90
8939;DHT22;4504;48.810;9.172;2023-07-31T21:43:28;19.10;99.90
8939;DHT22;4504;48.810;9.172;2023-07-31T21:45:56;19.10;99.90
8939;DHT22;4504;48.810;9.172;2023-07-31T21:48:23;19.10;99.90
8939;DHT22;4504;48.810;9.172;2023-07-31T21:50:50;19.00;99.90
8939;DHT22;4504;48.810;9.172;2023-07-31T21:53:17;19.00;99.90
8939;DHT22;4504;48.810;9.172;2023-07-31T21:55:45;19.00;99.90
8939;DHT22;4504;48.810;9.172;2023-07-31T21:58:12;19.00;99.90
8939;DHT22;4504;48.810;9.172;2023-07-31T22:00:39;19.00;99.90
8939;DHT22;4504;48.810;9.172;2023-07-31T22:03:06;18.90;99.90
8939;DHT22;4504;48.810;9.172;2023-07-31T22:05:33;18.90;99.90
8939;DHT22;4504;48.810;9.172;2023-07-31T22:08:00;18.80;99.90
8939;DHT22;4504;48.810;9.172;2023-07-31T22:10:27;18.80;99.90
8939;DHT22;4504;48.810;9.172;2023-07-31T22:12:56;18.80;99.90
8939;DHT22;4504;48.810;9.172;2023-07-31T22:15:23;18.80;99.90
8939;DHT22;4504;48.810;9.172;2023-07-31T22:17:50;18.80;99.90
8939;DHT22;4504;48.810;9.172;2023-07-31T22:20:17;18.70;99.90
8939;DHT22;4504;48.810;9.172;2023-07-31T22:22:44;18.60;99.90
8939;DHT22;4504;48.810;9.172;2023-07-31T22:25:11;18.60;99.90
8939;DHT22;4504;48.810;9.172;2023-07-31T22:27:38;18.60;99.90
8939;DHT22;4504;48.810;9.172;2023-07-31T22:30:07;18.60;99.90
8939;DHT22;4504;48.810;9.172;2023-07-31T22:32:34;18.60;99.90
8939;DHT22;4504;48.810;9.172;2023-07-31T22:35:01;18.60;99.90
8939;DHT22;4504;48.810;9.172;2023-07-31T22:37:28;18.60;99.90
8939;DHT22;4504;48.810;9.172;2023-07-31T22:39:55;18.60;99.90
8939;DHT22;4504;48.810;9.172;2023-07-31T22:42:22;18.60;99.90
8939;DHT22;4504;48.810;9.172;2023-07-31T22:44:49;18.60;99.90
8939;DHT22;4504;48.810;9.172;2023-07-31T22:47:18;18.60;99.90
8939;DHT22;4504;48.810;9.172;2023-07-31T22:49:45;18.60;99.90
8939;DHT22;4504;48.810;9.172;2023-07-31T22:52:12;18.60;99.90
8939;DHT22;4504;48.810;9.172;2023-07-31T22:54:39;18.70;99.90
8939;DHT22;4504;48.810;9.172;2023-07-31T22:57:06;18.70;99.90
8939;DHT22;4504;48.810;9.172;2023-07-31T22:59:33;18.70;99.90
8939;DHT22;4504;48.810;9.172;2023-07-31T23:02:00;18.70;99.90
8939;DHT22;4504;48.810;9.172;2023-07-31T23:04:28;18.70;99.90
8939;DHT22;4504;48.810;9.172;2023-07-31T23:06:55;18.70;99.90
8939;DHT22;4504;48.810;9.172;2023-07-31T23:09:23;18.70;99.90
8939;DHT22;4504;48.810;9.172;2023-07-31T23:11:50;18.70;99.90
8939;DHT22;4504;48.810;9.172;2023-07-31T23:14:17;18.80;99.90
8939;DHT22;4504;48.810;9.172;2023-07-31T23:16:44;18.80;99.90
8939;DHT22;4504;48.810;9.172;2023-07-31T23:19:11;18.80;99.90
8939;DHT22;4504;48.810;9.172;2023-07-31T23:21:39;18.80;99.90
8939;DHT22;4504;48.810;9.172;2023-07-31T23:24:06;18.80;99.90
8939;DHT22;4504;48.810;9.172;2023-07-31T23:26:33;18.80;99.90
8939;DHT22;4504;48.810;9.172;2023-07-31T23:29:00;18.80;99.90
8939;DHT22;4504;48.810;9.172;2023-07-31T23:31:27;18.80;99.90
8939;DHT22;4504;48.810;9.172;2023-07-31T23:33:54;18.80;99.90
8939;DHT22;4504;48.810;9.172;2023-07-31T23:36:21;18.80;99.90
8939;DHT22;4504;48.810;9.172;2023-07-31T23:38:50;18.80;99.90
8939;DHT22;4504;48.810;9.172;2023-07-31T23:41:17;18.80;99.90
8939;DHT22;4504;48.810;9.172;2023-07-31T23:43:45;18.80;99.90
8939;DHT22;4504;48.810;9.172;2023-07-31T23:46:12;18.80;99.90
8939;DHT22;4504;48.810;9.172;2023-07-31T23:48:39;18.70;99.90
8939;DHT22;4504;48.810;9.172;2023-07-31T23:51:06;18.60;99.90
8939;DHT22;4504;48.810;9.172;2023-07-31T23:53:33;18.60;99.90
8939;DHT22;4504;48.810;9.172;2023-07-31T23:56:02;18.60;99.90
8939;DHT22;4504;48.810;9.172;2023-07-31T23:58:30;18.60;99.90
